Time;durP1;ratioP1;P1;durP2;ratioP2;P2;SDS_P1;SDS_P2;PMS_P1;PMS_P2;Temp;Humidity;BMP_temperature;BMP_pressure;BME280_temperature;BME280_humidity;BME280_pressure;Samples;Min_cycle;Max_cycle;Signal;HPM_P1;HPM_P2
2023/07/19 00:00:16;;;;;;;12.93;11.30;;;30.70;99.90;;;;;;5034297;28;20033;-61
2023/07/19 00:02:42;;;;;;;12.90;10.82;;;30.60;99.90;;;;;;5032695;28;20025;-61
2023/07/19 00:05:08;;;;;;;12.25;10.98;;;30.60;99.90;;;;;;5034073;28;20080;-60
2023/07/19 00:07:34;;;;;;;14.45;11.85;;;30.70;99.90;;;;;;5034061;28;20048;-61
2023/07/19 00:10:00;;;;;;;12.57;11.27;;;30.70;99.90;;;;;;5033935;28;20605;-61
2023/07/19 00:12:25;;;;;;;13.43;11.35;;;30.60;99.90;;;;;;5033853;28;20103;-61
2023/07/19 00:14:51;;;;;;;14.98;10.88;;;30.70;99.90;;;;;;5032771;28;20049;-61
2023/07/19 00:17:17;;;;;;;11.93;10.75;;;30.70;99.90;;;;;;5033809;28;20029;-61
2023/07/19 00:19:42;;;;;;;13.40;11.07;;;31.00;99.90;;;;;;5031005;28;20071;-61
2023/07/19 00:22:09;;;;;;;14.93;10.77;;;30.80;99.90;;;;;;5033737;28;20034;-61
2023/07/19 00:24:35;;;;;;;12.40;11.00;;;30.80;99.90;;;;;;5033530;28;20119;-61
2023/07/19 00:27:00;;;;;;;12.73;11.52;;;30.80;99.90;;;;;;5033899;28;20091;-61
2023/07/19 00:29:26;;;;;;;13.98;11.00;;;30.80;99.90;;;;;;5032625;28;20013;-61
2023/07/19 00:31:52;;;;;;;12.48;11.20;;;30.80;99.90;;;;;;5033385;28;20041;-61
2023/07/19 00:34:18;;;;;;;13.30;11.05;;;30.80;99.90;;;;;;5033618;28;20101;-61
2023/07/19 00:36:44;;;;;;;12.45;11.15;;;30.90;99.90;;;;;;5033598;28;20384;-61
2023/07/19 00:39:10;;;;;;;11.38;10.30;;;30.80;99.90;;;;;;5030855;28;20462;-61
2023/07/19 00:41:35;;;;;;;14.48;11.70;;;30.80;99.90;;;;;;5029765;28;20052;-61
2023/07/19 00:44:03;;;;;;;15.35;12.52;;;30.80;99.90;;;;;;5033379;28;20022;-61
2023/07/19 00:46:29;;;;;;;12.82;11.63;;;30.60;99.90;;;;;;5032240;28;20018;-61
2023/07/19 00:48:56;;;;;;;14.50;12.20;;;30.50;99.90;;;;;;5033307;28;20033;-61
2023/07/19 00:51:22;;;;;;;12.70;11.35;;;30.50;99.90;;;;;;5019327;28;20124;-61
2023/07/19 00:53:49;;;;;;;15.23;11.82;;;30.50;99.90;;;;;;5033353;28;20028;-61
2023/07/19 00:56:16;;;;;;;12.27;11.00;;;30.50;99.90;;;;;;5033170;28;20037;-61
2023/07/19 00:58:43;;;;;;;16.25;12.77;;;30.40;99.90;;;;;;5033064;28;20034;-61
2023/07/19 01:01:09;;;;;;;13.02;11.32;;;30.30;99.90;;;;;;5033159;28;20026;-61
2023/07/19 01:03:35;;;;;;;11.85;10.68;;;30.40;99.90;;;;;;5031879;28;20083;-61
2023/07/19 01:06:03;;;;;;;14.55;11.77;;;30.30;99.90;;;;;;5032891;28;20096;-61
2023/07/19 01:08:29;;;;;;;14.52;11.93;;;30.30;99.90;;;;;;5028715;28;20026;-61
2023/07/19 01:10:55;;;;;;;13.80;12.50;;;30.30;99.90;;;;;;5027042;28;20044;-61
2023/07/19 01:13:21;;;;;;;15.00;12.32;;;30.30;99.90;;;;;;5032204;28;20025;-61
2023/07/19 01:15:47;;;;;;;13.60;12.27;;;30.10;99.90;;;;;;5032492;28;20080;-61
2023/07/19 01:18:12;;;;;;;13.98;12.50;;;30.10;99.90;;;;;;5032214;28;20056;-61
2023/07/19 01:20:38;;;;;;;15.13;13.57;;;30.20;99.90;;;;;;5031161;28;20039;-61
2023/07/19 01:23:04;;;;;;;15.35;13.75;;;30.20;99.90;;;;;;5032043;28;20108;-61
2023/07/19 01:25:30;;;;;;;13.05;11.75;;;30.10;99.90;;;;;;5031811;28;20107;-61
2023/07/19 01:27:56;;;;;;;14.02;12.73;;;30.00;99.90;;;;;;5030366;28;20112;-61
2023/07/19 01:30:22;;;;;;;16.17;12.68;;;30.10;99.90;;;;;;5031238;28;20605;-61
2023/07/19 01:32:48;;;;;;;13.43;12.13;;;30.00;99.90;;;;;;5031852;28;20024;-61
2023/07/19 01:35:13;;;;;;;15.40;13.85;;;30.00;99.90;;;;;;5032500;28;20109;-61
2023/07/19 01:37:39;;;;;;;13.13;11.63;;;30.00;99.90;;;;;;5032231;28;20061;-61
2023/07/19 01:40:06;;;;;;;14.38;13.02;;;30.00;99.90;;;;;;5030914;28;20025;-61
2023/07/19 01:42:32;;;;;;;13.77;12.48;;;30.00;99.90;;;;;;5028669;28;20037;-61
2023/07/19 01:44:59;;;;;;;14.52;12.80;;;30.00;99.90;;;;;;5032964;28;20033;-61
2023/07/19 01:47:25;;;;;;;14.85;13.35;;;30.00;99.90;;;;;;5032420;28;20028;-61
2023/07/19 01:49:51;;;;;;;13.77;12.55;;;29.70;99.90;;;;;;5032650;28;20124;-61
2023/07/19 01:52:17;;;;;;;15.35;13.38;;;29.80;99.90;;;;;;5028721;28;20049;-61
2023/07/19 01:54:42;;;;;;;13.82;12.38;;;29.80;99.90;;;;;;5036326;28;20026;-61
2023/07/19 01:57:08;;;;;;;12.40;11.13;;;29.80;99.90;;;;;;5035398;28;20044;-61
2023/07/19 01:59:34;;;;;;;13.05;10.75;;;29.90;99.90;;;;;;5023756;28;20046;-61
2023/07/19 02:01:59;;;;;;;12.23;11.02;;;29.80;99.90;;;;;;5035181;28;20025;-61
2023/07/19 02:04:26;;;;;;;11.80;10.25;;;29.90;99.90;;;;;;5036263;28;20083;-61
2023/07/19 02:06:52;;;;;;;11.38;10.20;;;29.60;99.90;;;;;;5036286;28;20120;-61
2023/07/19 02:09:18;;;;;;;12.02;10.75;;;29.50;99.90;;;;;;5036015;28;20079;-61
2023/07/19 02:11:44;;;;;;;13.65;11.43;;;29.60;99.90;;;;;;5035345;28;20120;-61
2023/07/19 02:14:09;;;;;;;12.35;11.10;;;29.60;99.90;;;;;;5035325;28;20475;-61
2023/07/19 02:16:35;;;;;;;15.23;12.32;;;29.70;99.90;;;;;;5034870;28;20025;-61
2023/07/19 02:19:03;;;;;;;14.95;11.60;;;29.60;99.90;;;;;;5036032;28;20080;-61
2023/07/19 02:21:29;;;;;;;12.40;11.25;;;29.50;99.90;;;;;;5036308;28;20028;-61
2023/07/19 02:23:55;;;;;;;13.50;10.23;;;29.50;99.90;;;;;;5036190;28;20383;-61
2023/07/19 02:26:21;;;;;;;12.40;11.07;;;29.40;99.90;;;;;;5035808;28;20092;-61
2023/07/19 02:28:46;;;;;;;12.90;11.60;;;29.50;99.90;;;;;;5035962;28;20112;-61
2023/07/19 02:31:12;;;;;;;13.07;11.70;;;29.40;99.90;;;;;;5035004;28;20060;-61
2023/07/19 02:33:38;;;;;;;12.90;11.20;;;29.40;99.90;;;;;;5035659;28;20057;-61
2023/07/19 02:36:03;;;;;;;13.80;11.60;;;29.30;99.90;;;;;;5035875;28;20029;-61
2023/07/19 02:38:29;;;;;;;13.15;11.75;;;29.20;99.90;;;;;;5035606;28;20018;-61
2023/07/19 02:40:59;;;;;;;12.93;11.68;;;29.10;1.00;;;;;;5035882;28;20564;-61
2023/07/19 02:43:25;;;;;;;13.45;12.15;;;29.00;1.00;;;;;;5035612;28;20037;-61
2023/07/19 02:45:55;;;;;;;12.73;11.45;;;29.00;1.00;;;;;;5035878;28;20379;-61
2023/07/19 02:48:23;;;;;;;13.38;11.88;;;29.00;1.00;;;;;;5033223;28;20394;-61
2023/07/19 02:50:49;;;;;;;11.95;10.80;;;29.20;1.00;;;;;;5035413;28;20140;-61
2023/07/19 02:53:15;;;;;;;13.88;11.55;;;29.10;1.00;;;;;;5035426;28;20030;-60
2023/07/19 02:55:47;;;;;;;13.10;11.90;;;29.10;1.00;;;;;;5030702;28;20052;-61
2023/07/19 02:58:14;;;;;;;12.55;11.25;;;29.10;1.00;;;;;;5035401;28;20139;-61
2023/07/19 03:00:41;;;;;;;12.30;11.00;;;29.10;1.00;;;;;;5035298;28;20025;-61
2023/07/19 03:03:07;;;;;;;14.02;12.60;;;29.10;1.00;;;;;;5034271;28;20426;-61
2023/07/19 03:05:39;;;;;;;12.88;11.18;;;28.90;1.00;;;;;;5033333;28;20041;-61
2023/07/19 03:08:08;;;;;;;14.02;11.88;;;29.00;1.00;;;;;;5023717;28;20177;-60
2023/07/19 03:10:34;;;;;;;13.00;11.82;;;28.90;1.00;;;;;;5035306;28;20072;-61
2023/07/19 03:13:00;;;;;;;16.63;12.20;;;28.70;1.00;;;;;;5035043;28;20025;-61
2023/07/19 03:15:27;;;;;;;14.23;12.40;;;28.70;1.00;;;;;;5035135;28;20029;-61
2023/07/19 03:17:53;;;;;;;14.13;12.75;;;28.70;1.00;;;;;;5034831;28;20025;-61
2023/07/19 03:20:19;;;;;;;16.20;12.35;;;28.80;1.00;;;;;;5035117;28;20025;-61
2023/07/19 03:22:44;;;;;;;13.25;11.88;;;28.80;1.00;;;;;;5033653;28;20041;-61
2023/07/19 03:25:10;;;;;;;15.88;12.40;;;28.80;1.00;;;;;;5034876;28;20025;-61
2023/07/19 03:27:36;;;;;;;15.60;13.55;;;28.80;1.00;;;;;;5033351;28;20078;-61
2023/07/19 03:30:02;;;;;;;17.45;15.57;;;28.80;1.00;;;;;;5034675;28;20092;-61
2023/07/19 03:32:29;;;;;;;19.42;17.63;;;28.50;1.00;;;;;;5034637;28;20108;-61
2023/07/19 03:34:55;;;;;;;20.60;17.20;;;28.50;1.00;;;;;;5034640;28;20057;-61
2023/07/19 03:37:21;;;;;;;17.73;16.23;;;28.60;1.00;;;;;;5033686;28;20068;-61
2023/07/19 03:39:46;;;;;;;19.52;17.70;;;28.80;1.00;;;;;;5034366;28;20464;-61
2023/07/19 03:42:12;;;;;;;19.88;18.00;;;28.70;1.00;;;;;;5034503;28;20030;-61
2023/07/19 03:44:37;;;;;;;18.17;16.40;;;28.60;1.00;;;;;;5033481;28;20029;-61
2023/07/19 03:47:03;;;;;;;18.75;17.13;;;28.70;1.00;;;;;;5034370;28;20026;-61
2023/07/19 03:49:29;;;;;;;18.02;15.90;;;28.80;1.00;;;;;;5034125;28;20029;-60
2023/07/19 03:51:55;;;;;;;15.85;14.00;;;28.60;1.00;;;;;;5033690;28;20033;-61
2023/07/19 03:54:20;;;;;;;15.95;13.30;;;28.60;1.00;;;;;;5033833;28;20018;-61
2023/07/19 03:56:46;;;;;;;15.88;14.18;;;28.50;1.00;;;;;;5034262;28;20168;-61
2023/07/19 03:59:12;;;;;;;14.88;13.38;;;28.40;1.00;;;;;;5034058;28;20053;-61
2023/07/19 04:01:38;;;;;;;16.17;14.55;;;28.60;1.00;;;;;;5031303;28;20079;-61
2023/07/19 04:04:03;;;;;;;16.23;14.80;;;28.80;1.00;;;;;;5031023;28;20021;-61
2023/07/19 04:06:30;;;;;;;17.95;16.23;;;28.80;1.00;;;;;;5032664;28;20025;-61
2023/07/19 04:08:55;;;;;;;17.55;15.95;;;28.80;1.00;;;;;;5033816;28;20549;-61
2023/07/19 04:11:21;;;;;;;18.77;16.83;;;28.80;1.00;;;;;;5033889;28;20037;-61
2023/07/19 04:13:47;;;;;;;18.30;16.40;;;28.80;1.00;;;;;;5033755;28;20478;-61
2023/07/19 04:16:13;;;;;;;19.58;17.75;;;28.80;1.00;;;;;;5033954;28;20033;-61
2023/07/19 04:18:39;;;;;;;19.60;17.90;;;28.60;1.00;;;;;;5032322;28;20028;-60
2023/07/19 04:21:04;;;;;;;19.38;17.70;;;28.70;1.00;;;;;;5033732;28;20026;-61
2023/07/19 04:23:30;;;;;;;19.75;17.83;;;28.80;1.00;;;;;;5033705;28;20079;-61
2023/07/19 04:25:56;;;;;;;18.55;16.63;;;28.80;1.00;;;;;;5033663;28;20033;-61
2023/07/19 04:28:22;;;;;;;18.73;16.80;;;28.80;1.00;;;;;;5033971;28;20025;-61
2023/07/19 04:30:47;;;;;;;19.08;16.95;;;28.80;1.00;;;;;;5033447;28;20076;-60
2023/07/19 04:33:14;;;;;;;19.15;16.67;;;28.80;1.00;;;;;;5032147;28;20018;-61
2023/07/19 04:35:40;;;;;;;17.13;15.50;;;28.60;1.00;;;;;;5033519;28;20029;-61
2023/07/19 04:38:06;;;;;;;16.55;15.05;;;28.60;1.00;;;;;;5033215;28;20489;-61
2023/07/19 04:40:32;;;;;;;17.35;14.52;;;28.60;1.00;;;;;;5033358;28;20481;-61
2023/07/19 04:42:58;;;;;;;16.13;14.55;;;28.50;1.00;;;;;;5031949;28;20017;-61
2023/07/19 04:45:24;;;;;;;14.40;13.00;;;28.50;1.00;;;;;;5033489;28;20395;-61
2023/07/19 04:47:50;;;;;;;17.55;15.40;;;28.40;1.00;;;;;;5033300;28;20471;-61
2023/07/19 04:50:16;;;;;;;15.23;13.63;;;28.40;1.00;;;;;;5031955;28;20045;-60
2023/07/19 04:52:44;;;;;;;15.13;13.60;;;28.40;1.00;;;;;;5033246;28;20437;-61
2023/07/19 04:55:10;;;;;;;17.95;16.17;;;28.50;1.00;;;;;;5032068;28;20048;-60
2023/07/19 04:57:37;;;;;;;18.75;16.75;;;28.50;1.00;;;;;;5031768;28;20123;-61
2023/07/19 05:00:05;;;;;;;19.17;17.13;;;28.50;1.00;;;;;;5032995;28;20040;-61
2023/07/19 05:02:30;;;;;;;17.83;15.27;;;28.50;1.00;;;;;;5033203;28;20053;-61
2023/07/19 05:04:56;;;;;;;19.35;17.55;;;28.50;1.00;;;;;;5033152;28;20053;-61
2023/07/19 05:07:22;;;;;;;18.80;16.85;;;28.60;1.00;;;;;;5024397;28;20022;-61
2023/07/19 05:09:48;;;;;;;15.90;14.35;;;28.50;1.00;;;;;;5032766;28;20072;-61
2023/07/19 05:12:14;;;;;;;18.80;15.85;;;28.50;1.00;;;;;;5019068;28;20105;-61
2023/07/19 05:14:39;;;;;;;16.23;14.75;;;28.40;1.00;;;;;;5033010;28;20038;-61
2023/07/19 05:17:05;;;;;;;16.25;14.57;;;28.60;1.00;;;;;;5032953;28;20033;-61
2023/07/19 05:19:31;;;;;;;17.55;15.80;;;28.80;1.00;;;;;;5033199;28;20029;-61
2023/07/19 05:21:56;;;;;;;15.68;14.27;;;28.80;1.00;;;;;;5033171;28;20068;-61
2023/07/19 05:24:22;;;;;;;16.83;15.30;;;28.80;1.00;;;;;;5031769;28;20029;-61
2023/07/19 05:26:48;;;;;;;17.67;15.98;;;28.60;1.00;;;;;;5032355;28;20030;-61
2023/07/19 05:29:14;;;;;;;15.98;14.48;;;28.80;1.00;;;;;;5032799;28;20037;-61
2023/07/19 05:31:39;;;;;;;12.52;11.48;;;28.80;1.00;;;;;;5031732;28;20040;-61
2023/07/19 05:34:07;;;;;;;15.98;11.95;;;29.00;1.00;;;;;;5032788;28;20100;-62
2023/07/19 05:36:33;;;;;;;15.43;13.93;;;28.60;99.90;;;;;;5032878;28;20021;-62
2023/07/19 05:39:01;;;;;;;14.93;13.35;;;28.60;1.00;;;;;;5032263;28;20034;-62
2023/07/19 05:41:27;;;;;;;14.80;13.38;;;28.90;1.00;;;;;;5032615;28;20125;-62
2023/07/19 05:43:53;;;;;;;13.40;12.10;;;29.20;1.00;;;;;;5032527;28;20033;-62
2023/07/19 05:46:19;;;;;;;14.30;13.00;;;29.30;1.00;;;;;;5031536;28;20380;-62
2023/07/19 05:48:45;;;;;;;14.10;11.85;;;29.10;1.00;;;;;;5032807;28;20060;-62
2023/07/19 05:51:10;;;;;;;14.30;12.02;;;28.80;1.00;;;;;;5032725;28;20079;-62
2023/07/19 05:53:37;;;;;;;13.23;11.85;;;28.80;1.00;;;;;;5032566;28;20030;-62
2023/07/19 05:56:02;;;;;;;15.60;12.40;;;29.10;1.00;;;;;;5032734;28;20030;-62
2023/07/19 05:58:30;;;;;;;13.65;12.25;;;28.90;1.00;;;;;;5032373;28;20045;-62
2023/07/19 06:00:56;;;;;;;13.50;11.70;;;28.90;1.00;;;;;;5032587;28;20463;-62
2023/07/19 06:03:21;;;;;;;13.38;11.75;;;29.00;1.00;;;;;;5014876;28;20034;-62
2023/07/19 06:05:47;;;;;;;13.88;12.48;;;29.20;1.00;;;;;;5029868;28;20025;-62
2023/07/19 06:08:13;;;;;;;13.63;12.32;;;29.20;1.00;;;;;;5032507;28;20055;-62
2023/07/19 06:10:39;;;;;;;14.13;12.00;;;29.00;1.00;;;;;;5032397;28;20037;-62
2023/07/19 06:13:05;;;;;;;13.73;12.30;;;28.90;1.00;;;;;;5032525;28;20120;-62
2023/07/19 06:15:34;;;;;;;16.10;14.43;;;28.90;1.00;;;;;;5031718;28;20107;-62
2023/07/19 06:18:00;;;;;;;18.73;16.90;;;28.80;1.00;;;;;;5030007;28;20022;-62
2023/07/19 06:20:27;;;;;;;19.85;17.75;;;28.90;1.00;;;;;;5032545;28;20542;-62
2023/07/19 06:22:52;;;;;;;17.65;15.80;;;28.80;1.00;;;;;;5031076;28;20394;-62
2023/07/19 06:25:18;;;;;;;20.60;18.42;;;28.80;1.00;;;;;;5032429;28;20026;-62
2023/07/19 06:27:44;;;;;;;18.85;16.80;;;28.80;1.00;;;;;;5032603;28;20360;-62
2023/07/19 06:30:11;;;;;;;20.40;15.65;;;28.80;1.00;;;;;;5030915;28;20091;-62
2023/07/19 06:32:37;;;;;;;16.17;14.13;;;28.80;1.00;;;;;;5032235;28;20064;-62
2023/07/19 06:35:04;;;;;;;14.52;13.05;;;29.00;1.00;;;;;;5032174;28;20108;-62
2023/07/19 06:37:31;;;;;;;13.50;11.25;;;29.20;1.00;;;;;;5032453;28;20565;-62
2023/07/19 06:39:56;;;;;;;14.13;12.63;;;29.30;1.00;;;;;;5034376;28;20409;-62
2023/07/19 06:42:22;;;;;;;15.30;12.57;;;29.40;1.00;;;;;;5035519;28;20034;-62
2023/07/19 06:44:47;;;;;;;13.90;12.00;;;29.20;1.00;;;;;;5034369;28;20057;-62
2023/07/19 06:47:14;;;;;;;13.90;12.38;;;29.20;1.00;;;;;;5032311;28;20502;-62
2023/07/19 06:49:40;;;;;;;14.95;13.35;;;29.30;1.00;;;;;;5035101;28;20049;-62
2023/07/19 06:52:06;;;;;;;13.88;12.48;;;29.40;1.00;;;;;;5035468;28;20065;-62
2023/07/19 06:54:32;;;;;;;18.55;14.18;;;29.60;1.00;;;;;;5033920;28;20076;-62
2023/07/19 06:56:58;;;;;;;14.27;12.23;;;29.30;1.00;;;;;;5034250;28;20029;-62
2023/07/19 06:59:24;;;;;;;12.85;11.40;;;29.40;1.00;;;;;;5035343;28;20564;-62
2023/07/19 07:01:49;;;;;;;14.15;12.68;;;29.30;1.00;;;;;;5033560;28;20468;-62
2023/07/19 07:04:15;;;;;;;15.43;13.25;;;29.40;1.00;;;;;;5028360;28;20391;-67
2023/07/19 07:06:41;;;;;;;14.73;13.23;;;29.20;1.00;;;;;;5027941;28;20045;-71
2023/07/19 07:09:07;;;;;;;15.93;14.32;;;29.50;1.00;;;;;;5034376;28;20051;-75
2023/07/19 07:11:33;;;;;;;15.88;11.80;;;29.80;1.00;;;;;;5034823;28;20029;-78
2023/07/19 07:13:59;;;;;;;13.23;11.63;;;30.10;1.00;;;;;;5033878;28;20025;-69
2023/07/19 07:16:24;;;;;;;18.77;13.88;;;30.10;1.00;;;;;;5033045;28;20025;-70
2023/07/19 07:18:50;;;;;;;13.55;11.88;;;29.80;1.00;;;;;;5032804;28;20099;-70
2023/07/19 07:21:16;;;;;;;17.92;12.52;;;29.90;1.00;;;;;;5035052;28;20502;-69
2023/07/19 07:23:41;;;;;;;14.23;12.80;;;30.20;1.00;;;;;;5034620;28;20538;-74
2023/07/19 07:26:07;;;;;;;19.00;13.00;;;30.40;1.00;;;;;;5034533;28;20134;-68
2023/07/19 07:28:33;;;;;;;13.57;12.25;;;30.40;99.90;;;;;;5032809;28;20021;-66
2023/07/19 07:31:06;;;;;;;15.43;13.80;;;30.60;99.90;;;;;;5032121;28;20581;-66
2023/07/19 07:33:31;;;;;;;16.83;13.45;;;30.30;1.00;;;;;;5034857;28;20423;-80
2023/07/19 07:35:57;;;;;;;15.40;12.32;;;30.60;99.90;;;;;;5034779;28;20041;-77
2023/07/19 07:38:23;;;;;;;17.27;13.77;;;30.60;99.90;;;;;;5033081;28;20956;-68
2023/07/19 07:40:49;;;;;;;15.95;13.10;;;30.70;99.90;;;;;;5034407;28;20410;-71
2023/07/19 07:43:14;;;;;;;21.23;14.35;;;30.90;99.90;;;;;;5033586;28;20018;-73
2023/07/19 07:45:40;;;;;;;15.55;13.77;;;30.90;99.90;;;;;;5032678;28;20113;-67
2023/07/19 07:48:06;;;;;;;18.75;14.32;;;31.00;99.90;;;;;;5033584;28;20055;-67
2023/07/19 07:50:32;;;;;;;19.58;12.32;;;30.90;99.90;;;;;;5033841;28;20528;-77
2023/07/19 07:52:58;;;;;;;15.43;13.93;;;31.60;99.90;;;;;;5034300;28;20028;-84
2023/07/19 07:55:23;;;;;;;17.27;12.73;;;31.40;99.90;;;;;;5034487;28;20080;-77
2023/07/19 07:57:49;;;;;;;15.85;12.80;;;31.60;99.90;;;;;;5026257;28;20049;-78
2023/07/19 08:00:17;;;;;;;16.90;15.10;;;31.40;99.90;;;;;;5029041;28;20052;-78
2023/07/19 08:02:43;;;;;;;15.13;12.15;;;31.30;99.90;;;;;;5033395;28;20025;-79
2023/07/19 08:05:09;;;;;;;16.15;14.02;;;31.50;99.90;;;;;;5032084;28;20044;-71
2023/07/19 08:07:35;;;;;;;18.33;16.08;;;31.50;99.90;;;;;;5033763;28;20605;-75
2023/07/19 08:10:01;;;;;;;17.70;13.02;;;31.20;99.90;;;;;;5027675;28;20482;-73
2023/07/19 08:12:27;;;;;;;15.27;12.57;;;31.00;99.90;;;;;;5028897;28;20510;-72
2023/07/19 08:14:53;;;;;;;17.00;15.30;;;31.30;99.90;;;;;;5030729;28;20021;-80
2023/07/19 08:17:19;;;;;;;17.08;14.18;;;31.30;99.90;;;;;;5032180;28;20036;-77
2023/07/19 08:19:44;;;;;;;14.02;12.55;;;31.00;99.90;;;;;;5026270;28;20040;-76
2023/07/19 08:22:25;;;;;;;15.60;12.85;;;31.60;99.90;;;;;;5032868;28;20084;-69
2023/07/19 08:24:51;;;;;;;17.85;14.68;;;32.00;99.90;;;;;;5032808;28;20106;-79
2023/07/19 08:27:17;;;;;;;17.73;13.40;;;31.30;99.90;;;;;;5033664;28;20482;-74
2023/07/19 08:29:42;;;;;;;15.07;11.93;;;31.60;99.90;;;;;;5033055;28;20041;-69
2023/07/19 08:32:08;;;;;;;17.25;14.65;;;32.30;99.90;;;;;;5033679;28;20029;-76
2023/07/19 08:34:34;;;;;;;19.92;14.98;;;32.00;99.90;;;;;;5033460;28;20021;-71
2023/07/19 08:37:00;;;;;;;18.77;16.52;;;31.50;99.90;;;;;;5033446;28;20036;-71
2023/07/19 08:39:27;;;;;;;20.58;16.08;;;31.60;99.90;;;;;;5031371;28;20029;-71
2023/07/19 08:41:53;;;;;;;16.67;14.40;;;31.60;99.90;;;;;;5033099;28;20029;-73
2023/07/19 08:44:21;;;;;;;20.35;17.17;;;31.10;99.90;;;;;;5031293;28;20030;-78
2023/07/19 08:46:49;;;;;;;17.95;16.10;;;31.30;99.90;;;;;;5022724;28;20025;-69
2023/07/19 08:49:17;;;;;;;21.00;16.05;;;31.20;99.90;;;;;;5024738;28;20090;-75
2023/07/19 08:51:44;;;;;;;15.45;13.85;;;32.10;99.90;;;;;;5023299;28;20099;-72
2023/07/19 08:54:10;;;;;;;15.15;13.13;;;32.10;99.90;;;;;;5020728;28;20033;-74
2023/07/19 08:56:36;;;;;;;21.48;13.23;;;32.00;99.90;;;;;;5032300;28;20041;-68
2023/07/19 08:59:03;;;;;;;16.40;13.18;;;32.70;99.90;;;;;;5033020;28;20491;-70
2023/07/19 09:01:28;;;;;;;17.10;15.30;;;32.60;99.90;;;;;;5030565;28;20044;-73
2023/07/19 09:03:54;;;;;;;14.77;13.45;;;32.90;99.90;;;;;;5030568;28;20029;-75
2023/07/19 09:06:26;;;;;;;17.90;15.10;;;32.90;99.90;;;;;;5031471;28;20091;-68
2023/07/19 09:08:52;;;;;;;16.45;15.00;;;32.20;99.90;;;;;;5029632;28;20030;-82
2023/07/19 09:11:25;;;;;;;34.88;17.10;;;31.90;99.90;;;;;;5028262;28;20030;-74
2023/07/19 09:13:56;;;;;;;17.10;14.63;;;31.80;99.90;;;;;;5025850;28;20441;-74
2023/07/19 09:16:32;;;;;;;15.93;14.40;;;32.00;99.90;;;;;;5026484;28;20018;-70
2023/07/19 09:18:59;;;;;;;18.58;15.93;;;32.20;99.90;;;;;;5030093;28;20029;-69
2023/07/19 09:21:40;;;;;;;16.17;12.88;;;31.90;99.90;;;;;;5029696;28;20052;-69
2023/07/19 09:24:10;;;;;;;15.32;13.90;;;32.00;99.90;;;;;;5024167;28;20033;-70
2023/07/19 09:26:50;;;;;;;15.52;12.90;;;32.20;99.90;;;;;;5031136;28;20033;-70
2023/07/19 09:29:19;;;;;;;18.77;14.55;;;32.30;99.90;;;;;;5028275;28;20519;-68
2023/07/19 09:31:55;;;;;;;14.57;13.18;;;32.20;99.90;;;;;;5025689;28;20403;-65
2023/07/19 09:34:41;;;;;;;16.98;14.40;;;32.20;99.90;;;;;;5030722;28;20026;-67
2023/07/19 09:37:07;;;;;;;17.85;15.02;;;31.90;99.90;;;;;;5051933;28;20415;-71
2023/07/19 09:39:37;;;;;;;17.80;13.82;;;31.70;99.90;;;;;;5022532;28;20030;-71
2023/07/19 09:42:03;;;;;;;15.93;12.48;;;31.90;99.90;;;;;;5027320;28;20475;-79
2023/07/19 09:44:30;;;;;;;14.38;12.88;;;32.60;99.90;;;;;;5032789;28;20033;-78
2023/07/19 09:47:00;;;;;;;14.38;12.88;;;32.40;99.90;;;;;;5026480;28;20557;-79
2023/07/19 09:49:26;;;;;;;18.83;12.20;;;32.50;99.90;;;;;;5032533;28;20056;-79
2023/07/19 09:51:55;;;;;;;24.20;16.42;;;32.80;99.90;;;;;;5031334;28;20427;-79
2023/07/19 09:54:24;;;;;;;18.08;14.77;;;33.30;99.90;;;;;;5032505;28;20021;-79
2023/07/19 09:56:50;;;;;;;16.08;14.77;;;33.30;99.90;;;;;;5027207;28;20034;-67
2023/07/19 09:59:44;;;;;;;15.93;14.07;;;32.90;99.90;;;;;;5017994;28;20041;-73
2023/07/19 10:02:11;;;;;;;17.02;12.43;;;33.00;99.90;;;;;;5028159;28;20112;-73
2023/07/19 10:04:38;;;;;;;15.77;12.45;;;33.30;99.90;;;;;;5025411;28;20043;-72
2023/07/19 10:07:05;;;;;;;15.68;13.95;;;33.10;99.90;;;;;;5028500;28;20056;-73
2023/07/19 10:09:40;;;;;;;14.18;12.98;;;33.10;99.90;;;;;;5030519;28;20030;-70
2023/07/19 10:12:08;;;;;;;17.55;14.20;;;32.80;99.90;;;;;;5025363;28;20038;-70
2023/07/19 10:14:34;;;;;;;18.77;11.95;;;33.30;99.90;;;;;;5063906;28;20025;-67
2023/07/19 10:17:03;;;;;;;17.30;13.75;;;32.90;99.90;;;;;;5030952;28;20475;-68
2023/07/19 10:19:29;;;;;;;13.63;12.18;;;33.00;99.90;;;;;;5028960;28;20017;-64
2023/07/19 10:22:05;;;;;;;19.23;14.57;;;32.60;99.90;;;;;;5034133;28;20391;-64
2023/07/19 10:24:32;;;;;;;15.45;13.90;;;33.10;99.90;;;;;;5030306;28;20030;-64
2023/07/19 10:27:08;;;;;;;14.55;13.13;;;33.20;99.90;;;;;;5028824;28;20390;-63
2023/07/19 10:29:47;;;;;;;15.80;14.15;;;33.80;99.90;;;;;;5029964;28;20103;-63
2023/07/19 10:32:13;;;;;;;15.00;13.48;;;34.10;99.90;;;;;;5025495;28;20025;-65
2023/07/19 10:34:44;;;;;;;16.13;13.43;;;34.90;99.90;;;;;;5034573;28;20079;-67
2023/07/19 10:37:09;;;;;;;17.40;14.18;;;34.80;99.90;;;;;;5024597;28;20037;-68
2023/07/19 10:39:35;;;;;;;18.38;14.27;;;34.40;99.90;;;;;;5029222;28;20030;-67
2023/07/19 10:42:01;;;;;;;17.50;14.98;;;34.40;99.90;;;;;;5028053;28;20112;-68
2023/07/19 10:44:27;;;;;;;19.10;15.23;;;34.30;99.90;;;;;;5025705;28;20079;-68
2023/07/19 10:46:58;;;;;;;17.52;14.57;;;33.70;99.90;;;;;;5021869;28;20033;-60
2023/07/19 10:49:24;;;;;;;19.83;12.85;;;33.90;99.90;;;;;;5027572;28;20022;-66
2023/07/19 10:51:58;;;;;;;15.18;13.52;;;33.80;99.90;;;;;;5028604;28;20125;-66
2023/07/19 10:54:25;;;;;;;16.50;13.18;;;34.10;99.90;;;;;;5025860;28;20407;-66
2023/07/19 10:56:52;;;;;;;17.67;14.90;;;34.30;99.90;;;;;;5034133;28;20018;-66
2023/07/19 10:59:19;;;;;;;14.18;12.70;;;34.40;99.90;;;;;;5033226;28;20058;-66
2023/07/19 11:01:48;;;;;;;14.23;12.88;;;34.00;99.90;;;;;;5033605;28;20493;-66
2023/07/19 11:04:14;;;;;;;14.55;13.15;;;34.50;99.90;;;;;;5034010;28;20466;-66
2023/07/19 11:06:57;;;;;;;13.77;12.48;;;34.40;99.90;;;;;;5033966;28;20045;-66
2023/07/19 11:09:22;;;;;;;15.68;14.00;;;34.40;99.90;;;;;;5032740;28;20365;-66
2023/07/19 11:11:49;;;;;;;13.70;12.40;;;34.30;99.90;;;;;;5035122;28;20060;-65
2023/07/19 11:14:32;;;;;;;17.48;13.27;;;34.70;99.90;;;;;;5035190;28;20018;-66
2023/07/19 11:16:59;;;;;;;15.20;13.05;;;34.70;99.90;;;;;;5031191;28;20124;-66
2023/07/19 11:19:38;;;;;;;14.43;12.90;;;34.80;99.90;;;;;;5035127;28;20071;-66
2023/07/19 11:22:06;;;;;;;15.30;12.80;;;35.10;99.90;;;;;;5017183;28;20088;-66
2023/07/19 11:24:36;;;;;;;14.32;12.32;;;34.90;99.90;;;;;;5030183;28;20113;-66
2023/07/19 11:27:02;;;;;;;15.80;12.68;;;35.80;99.90;;;;;;5030881;28;20042;-66
2023/07/19 11:29:31;;;;;;;14.05;12.60;;;35.70;99.90;;;;;;5034775;28;20535;-65
2023/07/19 11:32:18;;;;;;;14.98;13.60;;;35.40;99.90;;;;;;5034733;28;20502;-66
2023/07/19 11:35:04;;;;;;;14.02;12.52;;;36.80;99.90;;;;;;5034843;28;20436;-66
2023/07/19 11:37:38;;;;;;;14.02;12.63;;;39.90;99.90;;;;;;5022444;28;20446;-66
2023/07/19 11:40:05;;;;;;;16.67;13.75;;;40.90;99.90;;;;;;5034815;28;20462;-66
2023/07/19 11:42:40;;;;;;;15.38;13.85;;;41.80;99.90;;;;;;5032080;28;20021;-66
2023/07/19 11:45:14;;;;;;;15.15;12.82;;;41.50;99.90;;;;;;5041682;28;20025;-66
2023/07/19 11:47:42;;;;;;;14.27;12.45;;;42.90;99.90;;;;;;5034719;28;20032;-67
2023/07/19 11:50:12;;;;;;;15.80;13.57;;;43.70;99.90;;;;;;5034324;28;20060;-67
2023/07/19 11:52:51;;;;;;;15.10;13.80;;;44.10;99.90;;;;;;5034476;28;20056;-67
2023/07/19 11:55:19;;;;;;;14.85;13.27;;;44.70;99.90;;;;;;5033086;28;20032;-66
2023/07/19 11:57:48;;;;;;;13.63;11.95;;;45.60;99.90;;;;;;5034301;28;20052;-66
2023/07/19 12:00:14;;;;;;;13.70;12.32;;;45.60;99.90;;;;;;5034150;28;20388;-66
2023/07/19 12:02:44;;;;;;;14.23;12.20;;;45.40;99.90;;;;;;5032308;28;20390;-67
2023/07/19 12:05:10;;;;;;;14.70;13.20;;;43.70;99.90;;;;;;5034170;28;20022;-66
2023/07/19 12:07:36;;;;;;;13.43;12.10;;;42.80;99.90;;;;;;5030565;28;20499;-67
2023/07/19 12:10:04;;;;;;;13.57;12.27;;;42.90;99.90;;;;;;5033891;28;20032;-67
2023/07/19 12:12:31;;;;;;;14.32;13.23;;;43.30;99.90;;;;;;5033983;28;20021;-67
2023/07/19 12:15:04;;;;;;;16.73;14.95;;;44.50;99.90;;;;;;5032466;28;20037;-67
2023/07/19 12:17:30;;;;;;;17.30;14.85;;;45.30;99.90;;;;;;5028952;28;20112;-67
2023/07/19 12:19:56;;;;;;;14.48;13.13;;;44.80;99.90;;;;;;5043773;28;20025;-67
2023/07/19 12:22:21;;;;;;;14.10;13.05;;;43.20;99.90;;;;;;5033787;28;20360;-67
2023/07/19 12:24:47;;;;;;;14.77;13.40;;;42.30;99.90;;;;;;5031429;28;20053;-68
2023/07/19 12:27:15;;;;;;;14.05;12.55;;;41.10;99.90;;;;;;5033192;28;20018;-67
2023/07/19 12:29:41;;;;;;;14.75;13.25;;;40.00;99.90;;;;;;5028099;28;20479;-67